createdAt,value
2023-02-19T00:01:01.520Z,7.32
2023-02-19T00:03:28.094Z,3.13
2023-02-19T00:05:54.596Z,5.15
2023-02-19T00:08:21.079Z,4.90
2023-02-19T00:10:47.566Z,8.10
2023-02-19T00:13:14.880Z,8.10
2023-02-19T00:15:41.363Z,6.32
2023-02-19T00:18:07.834Z,3.33
2023-02-19T00:20:34.315Z,4.60
2023-02-19T00:23:00.843Z,4.97
2023-02-19T00:25:27.367Z,5.25
2023-02-19T00:27:54.072Z,7.72
2023-02-19T00:30:20.691Z,7.25
2023-02-19T00:32:51.347Z,8.90
2023-02-19T00:35:17.843Z,8.18
2023-02-19T00:37:44.306Z,6.05
2023-02-19T00:40:11.023Z,7.35
2023-02-19T00:42:37.478Z,4.22
2023-02-19T00:45:04.502Z,6.70
2023-02-19T00:47:31.000Z,5.67
2023-02-19T00:49:57.413Z,6.40
2023-02-19T00:52:23.847Z,7.28
2023-02-19T00:54:50.296Z,6.57
2023-02-19T01:01:40.710Z,6.57
2023-02-19T01:04:07.694Z,7.60
2023-02-19T01:06:35.326Z,8.27
2023-02-19T01:09:02.816Z,7.60
2023-02-19T01:11:29.334Z,6.55
2023-02-19T01:14:00.833Z,5.25
2023-02-19T01:16:28.261Z,5.60
2023-02-19T01:18:54.823Z,6.00
2023-02-19T01:21:23.804Z,6.32
2023-02-19T01:23:51.543Z,4.38
2023-02-19T01:26:20.880Z,5.65
2023-02-19T01:28:48.441Z,3.15
2023-02-19T01:31:21.609Z,5.40
2023-02-19T01:33:51.220Z,4.25
2023-02-19T01:36:18.186Z,3.58
2023-02-19T01:38:44.947Z,5.47
2023-02-19T01:41:14.623Z,3.47
2023-02-19T01:44:01.513Z,4.35
2023-02-19T01:46:32.990Z,5.63
2023-02-19T01:49:06.461Z,4.07
2023-02-19T01:51:35.562Z,4.07
2023-02-19T01:54:05.469Z,3.15
2023-02-19T01:56:36.420Z,3.22
2023-02-19T01:59:03.058Z,5.75
2023-02-19T02:01:29.701Z,3.20
2023-02-19T02:03:56.313Z,3.22
2023-02-19T02:06:26.003Z,2.30
2023-02-19T02:09:14.415Z,2.33
2023-02-19T02:11:47.269Z,2.95
2023-02-19T02:14:14.559Z,4.43
2023-02-19T02:17:07.374Z,3.70
2023-02-19T02:20:03.659Z,4.30
2023-02-19T02:22:36.416Z,5.28
2023-02-19T02:25:20.134Z,4.20
2023-02-19T02:28:11.758Z,6.10
2023-02-19T02:30:43.588Z,4.05
2023-02-19T02:33:28.141Z,7.57
2023-02-19T02:35:59.328Z,6.53
2023-02-19T02:38:29.881Z,6.90
2023-02-19T02:40:57.149Z,6.22
2023-02-19T02:43:24.204Z,3.58
2023-02-19T02:45:50.761Z,5.33
2023-02-19T02:48:24.725Z,6.68
2023-02-19T02:51:00.179Z,4.80
2023-02-19T02:53:59.069Z,6.15
2023-02-19T02:56:26.361Z,4.50
2023-02-19T02:58:54.831Z,5.20
2023-02-19T03:01:47.781Z,7.05
2023-02-19T03:04:59.590Z,7.32
2023-02-19T03:07:31.103Z,5.60
2023-02-19T03:10:00.602Z,6.40
2023-02-19T03:12:49.653Z,6.25
2023-02-19T03:15:35.493Z,4.90
2023-02-19T03:18:24.092Z,6.63
2023-02-19T03:20:54.934Z,10.32
2023-02-19T03:23:43.314Z,5.03
2023-02-19T03:26:12.144Z,6.07
2023-02-19T03:29:01.268Z,6.97
2023-02-19T03:31:30.468Z,7.15
2023-02-19T03:34:00.687Z,6.88
2023-02-19T03:36:33.704Z,8.52
2023-02-19T03:39:04.581Z,9.38
2023-02-19T03:41:43.491Z,7.28
2023-02-19T03:44:13.927Z,10.63
2023-02-19T03:47:15.719Z,8.32
2023-02-19T03:50:11.743Z,6.18
2023-02-19T03:52:47.178Z,12.23
2023-02-19T03:55:32.037Z,6.43
2023-02-19T03:58:20.380Z,5.32
2023-02-19T04:01:07.336Z,7.28
2023-02-19T04:03:52.206Z,10.32
2023-02-19T04:06:26.001Z,8.00
2023-02-19T04:08:56.298Z,5.30
2023-02-19T04:11:24.598Z,8.32
2023-02-19T04:13:56.728Z,8.48
2023-02-19T04:16:28.638Z,8.93
2023-02-19T04:19:02.524Z,6.97
2023-02-19T04:21:31.969Z,9.48
2023-02-19T04:24:03.986Z,6.38
2023-02-19T04:26:32.163Z,9.13
2023-02-19T04:28:58.629Z,6.20
2023-02-19T04:31:27.284Z,13.10
2023-02-19T04:33:53.803Z,10.60
2023-02-19T04:36:20.298Z,13.20
2023-02-19T04:38:46.816Z,5.72
2023-02-19T04:41:13.435Z,11.40
2023-02-19T04:43:39.989Z,8.50
2023-02-19T04:46:06.525Z,8.10
2023-02-19T04:48:33.016Z,12.23
2023-02-19T04:50:59.541Z,9.65
2023-02-19T04:53:26.017Z,16.30
2023-02-19T04:55:53.469Z,10.93
2023-02-19T04:58:20.674Z,14.00
2023-02-19T05:00:51.036Z,6.38
2023-02-19T05:03:17.471Z,11.90
2023-02-19T05:05:44.022Z,13.45
2023-02-19T05:08:10.486Z,11.50
2023-02-19T05:10:36.912Z,15.88
2023-02-19T05:13:03.392Z,9.15
2023-02-19T05:15:29.853Z,13.45
2023-02-19T05:17:56.300Z,13.38
2023-02-19T05:20:23.091Z,9.73
2023-02-19T05:22:49.584Z,11.15
2023-02-19T05:25:16.224Z,9.40
2023-02-19T05:27:42.715Z,6.65
2023-02-19T05:30:10.176Z,7.38
2023-02-19T05:32:36.970Z,11.07
2023-02-19T05:35:03.721Z,8.63
2023-02-19T05:37:30.206Z,6.72
2023-02-19T05:39:56.761Z,11.18
2023-02-19T05:42:23.319Z,9.27
2023-02-19T05:44:49.786Z,12.35
2023-02-19T05:47:16.330Z,11.77
2023-02-19T05:49:42.950Z,11.23
2023-02-19T05:52:09.503Z,7.70
2023-02-19T05:54:36.000Z,10.80
2023-02-19T05:57:02.461Z,10.73
2023-02-19T05:59:29.155Z,11.35
2023-02-19T06:01:55.838Z,12.82
2023-02-19T06:04:22.372Z,16.55
2023-02-19T06:06:49.152Z,12.93
2023-02-19T06:09:15.956Z,8.68
2023-02-19T06:11:43.648Z,7.93
2023-02-19T06:14:12.734Z,11.40
2023-02-19T06:16:39.430Z,13.13
2023-02-19T06:19:06.048Z,8.00
2023-02-19T06:21:32.549Z,8.55
2023-02-19T06:23:59.227Z,10.88
2023-02-19T06:26:26.039Z,11.77
2023-02-19T06:28:54.110Z,17.25
2023-02-19T06:31:22.258Z,10.85
2023-02-19T06:33:50.736Z,8.55
2023-02-19T06:36:19.408Z,12.68
2023-02-19T06:38:46.406Z,13.48
2023-02-19T06:41:14.106Z,10.47
2023-02-19T06:46:08.028Z,10.57
2023-02-19T06:48:35.382Z,8.35
2023-02-19T06:51:01.901Z,6.45
2023-02-19T06:53:28.449Z,7.88
2023-02-19T06:56:03.285Z,9.23
2023-02-19T06:58:30.151Z,10.20
2023-02-19T07:00:56.737Z,7.07
2023-02-19T07:03:23.756Z,8.27
2023-02-19T07:05:53.274Z,10.80
2023-02-19T07:08:20.006Z,12.57
2023-02-19T07:10:53.773Z,11.13
2023-02-19T07:13:24.012Z,6.88
2023-02-19T07:15:52.196Z,8.15
2023-02-19T07:18:19.234Z,10.32
2023-02-19T07:20:45.964Z,6.70
2023-02-19T07:23:12.592Z,9.45
2023-02-19T07:25:39.769Z,7.03
2023-02-19T07:28:07.053Z,12.70
2023-02-19T07:33:44.074Z,13.27
2023-02-19T07:38:58.675Z,10.27
2023-02-19T07:41:31.494Z,6.35
2023-02-19T07:43:58.669Z,6.75
2023-02-19T07:46:25.813Z,9.03
2023-02-19T07:51:33.306Z,5.78
2023-02-19T07:54:00.536Z,9.70
2023-02-19T07:56:28.885Z,7.57
2023-02-19T07:58:55.381Z,7.30
2023-02-19T08:01:45.620Z,7.15
2023-02-19T08:04:14.086Z,4.65
2023-02-19T08:06:43.294Z,5.03
2023-02-19T08:09:09.989Z,5.15
2023-02-19T08:11:55.223Z,6.88
2023-02-19T08:14:26.658Z,4.45
2023-02-19T08:16:54.080Z,3.83
2023-02-19T08:19:21.537Z,4.18
2023-02-19T08:21:50.637Z,6.57
2023-02-19T08:24:17.240Z,8.10
2023-02-19T08:26:43.729Z,5.88
2023-02-19T08:29:10.532Z,5.07
2023-02-19T08:31:37.710Z,9.20
2023-02-19T08:34:04.368Z,8.60
2023-02-19T08:36:31.206Z,6.03
2023-02-19T08:38:57.695Z,6.80
2023-02-19T08:41:24.233Z,5.30
2023-02-19T08:43:50.895Z,7.97
2023-02-19T08:46:17.366Z,4.38
2023-02-19T08:48:43.857Z,5.75
2023-02-19T08:51:12.261Z,9.13
2023-02-19T08:53:40.569Z,8.85
2023-02-19T08:56:08.984Z,5.75
2023-02-19T08:58:37.495Z,4.20
2023-02-19T09:01:09.052Z,7.00
2023-02-19T09:03:35.862Z,6.85
2023-02-19T09:06:02.316Z,5.78
2023-02-19T09:08:28.949Z,4.97
2023-02-19T09:11:03.630Z,4.63
2023-02-19T09:13:30.461Z,4.70
2023-02-19T09:15:57.397Z,5.82
2023-02-19T09:18:25.956Z,8.50
2023-02-19T09:20:53.029Z,6.00
2023-02-19T09:23:19.815Z,5.37
2023-02-19T09:25:46.578Z,8.32
2023-02-19T09:28:13.324Z,9.75
2023-02-19T09:30:39.970Z,4.63
2023-02-19T09:33:07.068Z,5.43
2023-02-19T09:35:36.838Z,4.27
2023-02-19T09:38:03.442Z,8.15
2023-02-19T09:40:30.498Z,3.78
2023-02-19T09:42:57.802Z,5.07
2023-02-19T09:45:26.789Z,4.38
2023-02-19T09:47:56.435Z,3.55
2023-02-19T09:50:30.312Z,7.30
2023-02-19T09:53:01.429Z,8.85
2023-02-19T09:55:36.321Z,4.80
2023-02-19T09:58:27.965Z,6.07
2023-02-19T10:00:56.609Z,3.42
2023-02-19T10:03:33.686Z,3.85
2023-02-19T10:06:05.063Z,3.10
2023-02-19T10:08:34.414Z,5.55
2023-02-19T10:11:02.740Z,7.65
2023-02-19T10:13:40.120Z,3.47
2023-02-19T10:16:11.663Z,5.65
2023-02-19T10:18:41.436Z,3.67
2023-02-19T10:21:12.793Z,3.15
2023-02-19T10:23:41.332Z,4.30
2023-02-19T10:26:07.888Z,5.03
2023-02-19T10:28:36.152Z,6.72
2023-02-19T10:31:13.411Z,4.15
2023-02-19T10:34:01.207Z,6.28
2023-02-19T10:38:58.800Z,5.32
2023-02-19T10:41:26.871Z,7.07
2023-02-19T10:44:06.630Z,7.10
2023-02-19T10:46:37.454Z,7.40
2023-02-19T10:49:18.014Z,6.82
2023-02-19T10:51:44.641Z,7.63
2023-02-19T10:54:26.777Z,6.72
2023-02-19T10:56:54.186Z,3.97
2023-02-19T10:59:24.081Z,4.03
2023-02-19T11:01:59.136Z,7.18
2023-02-19T11:04:27.858Z,6.20
2023-02-19T11:06:55.063Z,5.32
2023-02-19T11:09:31.000Z,4.93
2023-02-19T11:12:02.940Z,3.95
2023-02-19T11:14:32.086Z,6.00
2023-02-19T11:17:05.093Z,7.78
2023-02-19T11:19:44.981Z,6.57
2023-02-19T11:22:35.687Z,6.15
2023-02-19T11:25:06.821Z,5.63
2023-02-19T11:27:33.737Z,4.50
2023-02-19T11:30:35.584Z,2.78
2023-02-19T11:33:21.966Z,26.48
2023-02-19T11:36:00.706Z,22.02
2023-02-19T11:38:27.634Z,6.30
2023-02-19T11:41:15.417Z,7.15
2023-02-19T11:44:14.540Z,4.05
2023-02-19T11:46:48.922Z,3.30
2023-02-19T11:49:34.090Z,4.70
2023-02-19T11:52:26.940Z,4.03
2023-02-19T11:55:08.388Z,3.30
2023-02-19T11:57:38.516Z,3.50
2023-02-19T12:00:55.819Z,2.83
2023-02-19T12:03:51.968Z,4.75
2023-02-19T12:06:38.236Z,4.22
2023-02-19T12:09:19.736Z,6.10
2023-02-19T12:11:46.302Z,6.93
2023-02-19T12:14:38.045Z,4.45
2023-02-19T12:17:48.692Z,4.35
2023-02-19T12:20:42.726Z,6.50
2023-02-19T12:23:14.939Z,4.55
2023-02-19T12:25:53.328Z,2.38
2023-02-19T12:28:36.725Z,4.18
2023-02-19T12:31:39.685Z,2.50
2023-02-19T12:34:12.240Z,4.18
2023-02-19T12:36:57.121Z,2.88
2023-02-19T12:39:54.809Z,3.38
2023-02-19T12:42:52.383Z,4.57
2023-02-19T12:45:33.362Z,1.88
2023-02-19T12:48:07.307Z,4.20
2023-02-19T12:50:35.832Z,2.67
2023-02-19T12:53:24.357Z,4.10
2023-02-19T12:55:52.513Z,4.90
2023-02-19T12:58:28.237Z,5.25
2023-02-19T13:00:59.094Z,2.95
2023-02-19T13:03:33.756Z,2.25
2023-02-19T13:06:15.581Z,7.13
2023-02-19T13:09:05.307Z,3.08
2023-02-19T13:11:41.830Z,1.98
2023-02-19T13:14:37.540Z,2.42
2023-02-19T13:17:24.078Z,2.00
2023-02-19T13:19:56.463Z,1.58
2023-02-19T13:23:00.965Z,2.40
2023-02-19T13:25:45.269Z,1.77
2023-02-19T13:28:33.913Z,3.17
2023-02-19T13:31:13.619Z,3.00
2023-02-19T13:34:05.708Z,2.70
2023-02-19T13:36:35.621Z,2.30
2023-02-19T13:39:05.587Z,2.40
2023-02-19T13:41:39.346Z,2.05
2023-02-19T13:44:08.518Z,2.67
2023-02-19T13:46:44.038Z,1.63
2023-02-19T13:49:22.877Z,2.83
2023-02-19T13:51:53.245Z,2.58
2023-02-19T13:54:29.225Z,1.55
2023-02-19T13:57:20.813Z,2.28
2023-02-19T13:59:48.347Z,1.65
2023-02-19T14:02:20.814Z,3.38
2023-02-19T14:05:06.868Z,2.80
2023-02-19T14:07:47.908Z,2.22
2023-02-19T14:10:51.391Z,1.52
2023-02-19T14:13:58.058Z,3.42
2023-02-19T14:16:32.325Z,2.50
2023-02-19T14:18:59.052Z,3.58
2023-02-19T14:21:35.694Z,5.10
2023-02-19T14:24:03.812Z,3.13
2023-02-19T14:26:33.002Z,4.32
2023-02-19T14:29:01.089Z,4.63
2023-02-19T14:31:32.016Z,4.82
2023-02-19T14:34:13.701Z,2.65
2023-02-19T14:36:48.854Z,5.00
2023-02-19T14:39:23.359Z,5.85
2023-02-19T14:41:53.271Z,4.47
2023-02-19T14:44:26.986Z,4.15
2023-02-19T14:47:05.900Z,2.20
2023-02-19T14:49:46.878Z,4.25
2023-02-19T14:52:36.775Z,4.70
2023-02-19T14:55:14.555Z,3.88
2023-02-19T15:00:22.086Z,5.65
2023-02-19T15:02:51.250Z,6.90
2023-02-19T15:05:31.739Z,7.30
2023-02-19T15:08:00.849Z,6.25
2023-02-19T15:10:29.354Z,6.15
2023-02-19T15:12:57.681Z,6.18
2023-02-19T15:15:29.787Z,4.45
2023-02-19T15:17:57.816Z,5.70
2023-02-19T15:20:27.531Z,7.20
2023-02-19T15:22:55.949Z,3.72
2023-02-19T15:25:24.703Z,9.02
2023-02-19T15:27:51.188Z,5.45
2023-02-19T15:30:27.534Z,7.43
2023-02-19T15:32:57.119Z,6.55
2023-02-19T15:35:25.327Z,6.88
2023-02-19T15:37:53.549Z,7.38
2023-02-19T15:40:20.676Z,7.32
2023-02-19T15:42:47.840Z,8.00
2023-02-19T15:45:29.411Z,6.00
2023-02-19T15:48:02.316Z,8.80
2023-02-19T15:50:31.767Z,8.02
2023-02-19T15:53:07.088Z,4.22
2023-02-19T15:55:45.547Z,7.70
2023-02-19T15:58:18.210Z,5.38
2023-02-19T16:00:55.932Z,6.78
2023-02-19T16:06:05.199Z,8.98
2023-02-19T16:08:39.715Z,11.27
2023-02-19T16:11:34.055Z,11.10
2023-02-19T16:14:19.306Z,8.65
2023-02-19T16:16:48.638Z,8.05
2023-02-19T16:19:30.827Z,10.57
2023-02-19T16:21:58.577Z,9.90
2023-02-19T16:24:30.199Z,5.95
2023-02-19T16:26:57.547Z,10.60
2023-02-19T16:29:30.126Z,11.30
2023-02-19T16:31:59.726Z,6.22
2023-02-19T16:34:34.454Z,8.77
2023-02-19T16:37:02.654Z,10.35
2023-02-19T16:39:29.945Z,6.15
2023-02-19T16:42:12.477Z,24.85
2023-02-19T16:44:39.005Z,6.95
2023-02-19T16:47:12.642Z,9.45
2023-02-19T16:49:40.298Z,6.93
2023-02-19T16:52:06.871Z,6.95
2023-02-19T16:54:33.421Z,6.68
2023-02-19T16:56:59.944Z,7.57
2023-02-19T16:59:26.434Z,7.30
2023-02-19T17:01:52.907Z,9.27
2023-02-19T17:04:19.527Z,10.52
2023-02-19T17:06:47.204Z,8.25
2023-02-19T17:09:13.757Z,4.18
2023-02-19T17:11:40.311Z,5.90
2023-02-19T17:14:07.050Z,6.72
2023-02-19T17:16:40.751Z,8.55
2023-02-19T17:19:18.349Z,5.65
2023-02-19T17:21:46.721Z,7.88
2023-02-19T17:24:13.705Z,9.27
2023-02-19T17:26:40.242Z,4.70
2023-02-19T17:29:08.825Z,6.20
2023-02-19T17:31:35.416Z,7.15
2023-02-19T17:34:01.939Z,6.05
2023-02-19T17:36:30.852Z,7.47
2023-02-19T17:38:58.900Z,5.72
2023-02-19T17:41:25.654Z,4.20
2023-02-19T17:43:52.606Z,2.97
2023-02-19T17:46:23.445Z,4.70
2023-02-19T17:48:50.579Z,4.85
2023-02-19T17:51:17.271Z,4.03
2023-02-19T17:53:44.000Z,4.25
2023-02-19T17:56:16.450Z,3.88
2023-02-19T17:58:42.941Z,3.20
2023-02-19T18:01:09.613Z,1.70
2023-02-19T18:03:37.582Z,3.03
2023-02-19T18:06:05.077Z,1.73
2023-02-19T18:08:31.585Z,1.00
2023-02-19T18:10:58.026Z,1.50
2023-02-19T18:13:24.613Z,1.08
2023-02-19T18:15:51.235Z,0.82
2023-02-19T18:18:17.809Z,1.73
2023-02-19T18:20:56.164Z,1.42
2023-02-19T18:23:22.678Z,1.00
2023-02-19T18:25:49.199Z,2.55
2023-02-19T18:28:16.143Z,0.95
2023-02-19T18:30:42.820Z,0.60
2023-02-19T18:33:11.008Z,0.70
2023-02-19T18:35:38.100Z,0.50
2023-02-19T18:38:04.657Z,0.53
2023-02-19T18:40:31.128Z,0.40
2023-02-19T18:42:58.675Z,0.17
2023-02-19T18:45:25.422Z,0.55
2023-02-19T18:47:52.050Z,0.10
2023-02-19T18:50:19.629Z,0.47
2023-02-19T18:52:46.447Z,0.38
2023-02-19T18:58:40.396Z,0.52
2023-02-19T19:01:06.939Z,0.70
2023-02-19T19:03:34.517Z,0.30
2023-02-19T19:06:01.423Z,0.20
2023-02-19T19:08:30.395Z,0.63
2023-02-19T19:10:57.183Z,0.70
2023-02-19T19:13:24.019Z,1.00
2023-02-19T19:15:51.243Z,0.80
2023-02-19T19:18:18.463Z,0.88
2023-02-19T19:20:45.079Z,0.38
2023-02-19T19:23:11.817Z,0.50
2023-02-19T19:25:38.262Z,0.70
2023-02-19T19:28:05.016Z,0.50
2023-02-19T19:30:31.616Z,1.00
2023-02-19T19:32:58.225Z,0.52
2023-02-19T19:35:24.874Z,0.60
2023-02-19T19:37:51.524Z,0.88
2023-02-19T19:40:18.851Z,1.02
2023-02-19T19:42:46.093Z,0.60
2023-02-19T19:45:13.861Z,0.20
2023-02-19T19:50:06.956Z,0.60
2023-02-19T19:52:33.442Z,0.38
2023-02-19T19:54:59.985Z,0.57
2023-02-19T19:57:26.466Z,0.77
2023-02-19T19:59:52.994Z,0.50
2023-02-19T20:02:19.595Z,0.90
2023-02-19T20:04:46.125Z,1.20
2023-02-19T20:07:12.608Z,1.40
2023-02-19T20:09:39.076Z,1.00
2023-02-19T20:12:06.552Z,1.10
2023-02-19T20:14:33.829Z,0.50
2023-02-19T20:17:00.399Z,0.80
2023-02-19T20:19:26.895Z,0.90
2023-02-19T20:21:54.148Z,0.90
2023-02-19T20:24:26.439Z,0.80
2023-02-19T20:26:58.691Z,0.50
2023-02-19T20:29:29.847Z,0.63
2023-02-19T20:31:59.913Z,0.80
2023-02-19T20:34:27.033Z,0.30
2023-02-19T20:36:53.870Z,0.57
2023-02-19T20:39:23.625Z,0.90
2023-02-19T20:41:53.027Z,0.70
2023-02-19T20:44:20.095Z,0.65
2023-02-19T20:46:48.970Z,0.60
2023-02-19T20:49:17.378Z,0.88
2023-02-19T20:51:44.265Z,0.63
2023-02-19T20:54:10.861Z,0.30
2023-02-19T20:56:37.376Z,0.50
2023-02-19T20:59:03.877Z,0.63
2023-02-19T21:01:30.523Z,0.77
2023-02-19T21:03:57.220Z,0.55
2023-02-19T21:06:24.864Z,1.40
2023-02-19T21:08:51.355Z,0.68
2023-02-19T21:11:17.941Z,0.75
2023-02-19T21:13:44.560Z,0.63
2023-02-19T21:16:11.498Z,0.80
2023-02-19T21:18:38.209Z,0.60
2023-02-19T21:21:04.900Z,0.95
2023-02-19T21:23:31.445Z,0.77
2023-02-19T21:25:57.965Z,0.82
2023-02-19T21:28:24.712Z,1.08
2023-02-19T21:30:51.333Z,0.70
2023-02-19T21:33:17.808Z,0.90
2023-02-19T21:35:45.151Z,0.80
2023-02-19T21:38:11.629Z,0.60
2023-02-19T21:40:39.362Z,1.25
2023-02-19T21:43:05.822Z,1.27
2023-02-19T21:45:33.532Z,0.73
2023-02-19T21:48:00.021Z,7.75
2023-02-19T21:50:26.523Z,2.08
2023-02-19T21:52:53.601Z,2.03
2023-02-19T21:55:20.154Z,1.03
2023-02-19T21:57:46.633Z,1.00
2023-02-19T22:00:13.739Z,1.30
2023-02-19T22:02:42.103Z,1.10
2023-02-19T22:05:08.891Z,1.00
2023-02-19T22:07:35.457Z,1.00
2023-02-19T22:10:02.073Z,1.25
2023-02-19T22:12:28.714Z,1.20
2023-02-19T22:14:55.241Z,1.67
2023-02-19T22:17:22.309Z,1.77
2023-02-19T22:19:48.811Z,2.50
2023-02-19T22:22:15.316Z,2.53
2023-02-19T22:24:41.922Z,2.67
2023-02-19T22:27:08.558Z,2.58
2023-02-19T22:29:35.120Z,2.28
2023-02-19T22:32:01.783Z,2.17
2023-02-19T22:34:28.373Z,2.58
2023-02-19T22:36:54.969Z,2.58
2023-02-19T22:39:24.825Z,2.75
2023-02-19T22:41:51.514Z,2.30
2023-02-19T22:44:18.310Z,3.20
2023-02-19T22:46:53.049Z,3.15
2023-02-19T22:49:20.813Z,3.13
2023-02-19T22:51:54.800Z,3.13
2023-02-19T22:54:27.061Z,3.97
2023-02-19T22:56:54.489Z,4.32
2023-02-19T22:59:21.518Z,4.00
2023-02-19T23:01:49.014Z,3.37
2023-02-19T23:04:16.028Z,5.82
2023-02-19T23:06:47.142Z,7.70
2023-02-19T23:09:23.660Z,6.32
2023-02-19T23:11:50.595Z,6.43
2023-02-19T23:14:19.455Z,6.78
2023-02-19T23:16:45.915Z,6.00
2023-02-19T23:19:14.648Z,5.82
2023-02-19T23:21:43.087Z,6.45
2023-02-19T23:24:09.728Z,8.95
2023-02-19T23:26:36.438Z,9.52
2023-02-19T23:29:03.354Z,7.80
2023-02-19T23:31:29.871Z,7.15
2023-02-19T23:33:56.397Z,6.65
2023-02-19T23:36:23.872Z,7.22
2023-02-19T23:38:50.708Z,29.48
2023-02-19T23:41:17.535Z,7.13
2023-02-19T23:43:44.784Z,7.18
2023-02-19T23:46:17.728Z,6.43
2023-02-19T23:48:45.959Z,5.78
2023-02-19T23:51:12.604Z,5.78
2023-02-19T23:53:39.091Z,6.82
2023-02-19T23:56:06.257Z,6.07
2023-02-19T23:58:32.861Z,6.53
